PWSweather.com
Personal Weather Stations
Station Observations
INORDPAS37
Bondues, BonduesFR 59910

BonduesBonduesFR 59910

Lat: 50.7, Lon: 3.09

Elevation: 102

Station Type: Netatmo

http://bondues.meteoamikuze.com

Latest ConditionsUpdated 9:42:00 AM GMT+01:01 Friday, Feb 22, 2019
Currently Today's Max Today's Min Today's Average
Temperature 43.7°F6.5°C 43.7°F6.5°C 42.4°F5.8°C 43.2°F6.2°C
Dew Point 32.9°F0.5°C 32.9°F0.5°C 31.5°F-0.3°C 32.3°F0.2°C
Winds 1.3 mph SE2.1 kmh SE 1.3 mph -2.1 kmh - - 0.9 mph 1.4 kmh
Wind Gusts 3.8 mph6.1 kmh 4.3 mph6.9 kmh - -
Humidity 71% 71% 69% 71%
Pressure 30.62 in1036.9 mb 30.62 in1036.9 mb 30.51 in1033.2 mb -
Hour Temp Dew Point Humidity Winds Wind Gusts Pressure Precip Precip Rate Daily Precip Total
09:42 AM 43.7°F6.5°C 32.9°F0.5°C 71% 1.3 mph SE2.1 kmh SE 3.8 mph6.1 kmh 30.62 in1036.9 mb 0.00 in0.0 mm 0.00 in0.0 mm 0.00 in0.0 mm
09:21 AM 43.5°F6.4°C 32.7°F0.4°C 71% 0.7 mph SSW1.1 kmh SSW 1.8 mph2.9 kmh 30.61 in1036.6 mb 0.00 in0.0 mm 0.00 in0.0 mm 0.00 in0.0 mm
09:00 AM 43.3°F6.3°C 32.5°F0.3°C 71% 1.3 mph NNE2.1 kmh NNE 3.1 mph5.0 kmh 30.60 in1036.2 mb 0.00 in0.0 mm 0.00 in0.0 mm 0.00 in0.0 mm
08:39 AM 43.2°F6.2°C 32.4°F0.2°C 71% 0.7 mph NW1.1 kmh NW 1.8 mph2.9 kmh 30.60 in1036.2 mb 0.00 in0.0 mm 0.00 in0.0 mm 0.00 in0.0 mm
08:19 AM 43.3°F6.3°C 32.5°F0.3°C 71% 0.7 mph NE1.1 kmh NE 1.8 mph2.9 kmh 30.60 in1036.2 mb 0.00 in0.0 mm 0.00 in0.0 mm 0.00 in0.0 mm
07:59 AM 43.3°F6.3°C 32.5°F0.3°C 71% 0.7 mph SW1.1 kmh SW 1.3 mph2.1 kmh 30.59 in1035.9 mb 0.00 in0.0 mm 0.00 in0.0 mm 0.00 in0.0 mm
07:39 AM 43.3°F6.3°C 32.5°F0.3°C 71% 0.7 mph SW1.1 kmh SW 1.8 mph2.9 kmh 30.58 in1035.6 mb 0.00 in0.0 mm 0.00 in0.0 mm 0.00 in0.0 mm
07:29 AM 43.5°F6.4°C 32.7°F0.4°C 71% 0.7 mph S1.1 kmh S 1.8 mph2.9 kmh 30.58 in1035.6 mb 0.00 in0.0 mm 0.00 in0.0 mm 0.00 in0.0 mm
07:09 AM 43.5°F6.4°C 32.7°F0.4°C 71% 0.7 mph SSW1.1 kmh SSW 1.3 mph2.1 kmh 30.57 in1035.2 mb 0.00 in0.0 mm 0.00 in0.0 mm 0.00 in0.0 mm
06:48 AM 43.5°F6.4°C 32.7°F0.4°C 71% 0.7 mph S1.1 kmh S 1.8 mph2.9 kmh 30.57 in1035.2 mb 0.00 in0.0 mm 0.00 in0.0 mm 0.00 in0.0 mm
06:28 AM 43.5°F6.4°C 32.7°F0.4°C 71% 0.7 mph SSE1.1 kmh SSE 1.8 mph2.9 kmh 30.56 in1034.9 mb 0.00 in0.0 mm 0.00 in0.0 mm 0.00 in0.0 mm
06:08 AM 43.5°F6.4°C 32.7°F0.4°C 71% 0.7 mph E1.1 kmh E 1.8 mph2.9 kmh 30.56 in1034.9 mb 0.00 in0.0 mm 0.00 in0.0 mm 0.00 in0.0 mm
05:48 AM 43.7°F6.5°C 32.9°F0.5°C 71% 1.3 mph NE2.1 kmh NE 2.5 mph4.0 kmh 30.56 in1034.9 mb 0.00 in0.0 mm 0.00 in0.0 mm 0.00 in0.0 mm
05:27 AM 43.5°F6.4°C 32.7°F0.4°C 71% 0.7 mph S1.1 kmh S 1.8 mph2.9 kmh 30.55 in1034.5 mb 0.00 in0.0 mm 0.00 in0.0 mm 0.00 in0.0 mm
05:08 AM 43.5°F6.4°C 32.7°F0.4°C 71% 0.7 mph SE1.1 kmh SE 1.3 mph2.1 kmh 30.55 in1034.5 mb 0.00 in0.0 mm 0.00 in0.0 mm 0.00 in0.0 mm
04:47 AM 43.5°F6.4°C 32.7°F0.4°C 71% 0.7 mph SSW1.1 kmh SSW 1.3 mph2.1 kmh 30.55 in1034.5 mb 0.00 in0.0 mm 0.00 in0.0 mm 0.00 in0.0 mm
04:27 AM 43.3°F6.3°C 32.5°F0.3°C 71% 0.7 mph NE1.1 kmh NE 2.5 mph4.0 kmh 30.54 in1034.2 mb 0.00 in0.0 mm 0.00 in0.0 mm 0.00 in0.0 mm
04:07 AM 43.3°F6.3°C 32.5°F0.3°C 71% 1.3 mph NE2.1 kmh NE 2.5 mph4.0 kmh 30.54 in1034.2 mb 0.00 in0.0 mm 0.00 in0.0 mm 0.00 in0.0 mm
03:46 AM 43.2°F6.2°C 32.4°F0.2°C 71% 1.3 mph 2.1 kmh 3.8 mph6.1 kmh 30.54 in1034.2 mb 0.00 in0.0 mm 0.00 in0.0 mm 0.00 in0.0 mm
03:27 AM 43.0°F6.1°C 32.2°F0.1°C 71% 1.3 mph WNW2.1 kmh WNW 3.8 mph6.1 kmh 30.53 in1033.9 mb 0.00 in0.0 mm 0.00 in0.0 mm 0.00 in0.0 mm
03:06 AM 42.8°F6.0°C 32.0°F0.0°C 71% 0.7 mph 1.1 kmh 2.5 mph4.0 kmh 30.53 in1033.9 mb 0.00 in0.0 mm 0.00 in0.0 mm 0.00 in0.0 mm
02:46 AM 42.6°F5.9°C 31.8°F-0.1°C 71% 0.7 mph SW1.1 kmh SW 1.8 mph2.9 kmh 30.53 in1033.9 mb 0.00 in0.0 mm 0.00 in0.0 mm 0.00 in0.0 mm
02:26 AM 42.4°F5.8°C 31.6°F-0.2°C 71% 0.7 mph W1.1 kmh W 2.5 mph4.0 kmh 30.53 in1033.9 mb 0.00 in0.0 mm 0.00 in0.0 mm 0.00 in0.0 mm
02:06 AM 42.4°F5.8°C 31.6°F-0.2°C 71% 1.3 mph NW2.1 kmh NW 3.8 mph6.1 kmh 30.52 in1033.5 mb 0.00 in0.0 mm 0.00 in0.0 mm 0.00 in0.0 mm
01:46 AM 42.4°F5.8°C 31.6°F-0.2°C 71% 1.3 mph WNW2.1 kmh WNW 3.8 mph6.1 kmh 30.53 in1033.9 mb 0.00 in0.0 mm 0.00 in0.0 mm 0.00 in0.0 mm
01:25 AM 42.6°F5.9°C 31.8°F-0.1°C 71% 1.3 mph W2.1 kmh W 2.5 mph4.0 kmh 30.52 in1033.5 mb 0.00 in0.0 mm 0.00 in0.0 mm 0.00 in0.0 mm
01:06 AM 42.6°F5.9°C 31.5°F-0.3°C 70% 1.3 mph W2.1 kmh W 3.1 mph5.0 kmh 30.51 in1033.2 mb 0.00 in0.0 mm 0.00 in0.0 mm 0.00 in0.0 mm
12:45 AM 43.0°F6.1°C 31.8°F-0.1°C 70% 1.3 mph W2.1 kmh W 4.3 mph6.9 kmh 30.51 in1033.2 mb 0.00 in0.0 mm 0.00 in0.0 mm 0.00 in0.0 mm
12:25 AM 43.0°F6.1°C 31.5°F-0.3°C 69% 0.7 mph W1.1 kmh W 1.8 mph2.9 kmh 30.51 in1033.2 mb 0.00 in0.0 mm 0.00 in0.0 mm 0.00 in0.0 mm